sensor_id;sensor_type;location;lat;lon;timestamp;P1;durP1;ratioP1;P2;durP2;ratioP2
31224;SDS011;17847;31.524;74.366;2023-06-10T00:01:49;19.63;;;9.57;;
31224;SDS011;17847;31.524;74.366;2023-06-10T00:04:19;18.58;;;10.10;;
31224;SDS011;17847;31.524;74.366;2023-06-10T00:06:49;20.08;;;10.02;;
31224;SDS011;17847;31.524;74.366;2023-06-10T00:09:19;18.88;;;10.60;;
31224;SDS011;17847;31.524;74.366;2023-06-10T00:11:51;24.75;;;10.43;;
31224;SDS011;17847;31.524;74.366;2023-06-10T00:14:20;18.48;;;9.98;;
31224;SDS011;17847;31.524;74.366;2023-06-10T00:16:49;23.63;;;10.52;;
31224;SDS011;17847;31.524;74.366;2023-06-10T00:19:21;22.10;;;9.45;;
31224;SDS011;17847;31.524;74.366;2023-06-10T00:21:53;20.55;;;10.25;;
31224;SDS011;17847;31.524;74.366;2023-06-10T00:24:23;16.40;;;9.90;;
31224;SDS011;17847;31.524;74.366;2023-06-10T00:26:53;24.80;;;10.00;;
31224;SDS011;17847;31.524;74.366;2023-06-10T00:29:22;27.55;;;10.93;;
31224;SDS011;17847;31.524;74.366;2023-06-10T00:31:52;26.65;;;10.07;;
31224;SDS011;17847;31.524;74.366;2023-06-10T00:34:26;23.95;;;9.85;;
31224;SDS011;17847;31.524;74.366;2023-06-10T00:36:56;22.65;;;11.85;;
31224;SDS011;17847;31.524;74.366;2023-06-10T00:39:26;23.05;;;11.85;;
31224;SDS011;17847;31.524;74.366;2023-06-10T00:41:55;25.75;;;11.65;;
31224;SDS011;17847;31.524;74.366;2023-06-10T00:44:26;34.15;;;12.15;;
31224;SDS011;17847;31.524;74.366;2023-06-10T00:46:55;28.50;;;12.25;;
31224;SDS011;17847;31.524;74.366;2023-06-10T00:49:24;26.23;;;12.55;;
31224;SDS011;17847;31.524;74.366;2023-06-10T00:51:54;30.15;;;12.70;;
31224;SDS011;17847;31.524;74.366;2023-06-10T00:54:24;46.53;;;12.90;;
31224;SDS011;17847;31.524;74.366;2023-06-10T00:56:54;28.00;;;12.75;;
31224;SDS011;17847;31.524;74.366;2023-06-10T00:59:25;37.03;;;13.55;;
31224;SDS011;17847;31.524;74.366;2023-06-10T01:01:57;26.38;;;13.32;;
31224;SDS011;17847;31.524;74.366;2023-06-10T01:04:29;35.67;;;13.80;;
31224;SDS011;17847;31.524;74.366;2023-06-10T01:07:08;33.97;;;12.15;;
31224;SDS011;17847;31.524;74.366;2023-06-10T01:12:34;34.05;;;12.82;;
31224;SDS011;17847;31.524;74.366;2023-06-10T01:15:08;34.22;;;12.63;;
31224;SDS011;17847;31.524;74.366;2023-06-10T01:20:26;30.75;;;13.63;;
31224;SDS011;17847;31.524;74.366;2023-06-10T01:22:56;46.25;;;18.50;;
31224;SDS011;17847;31.524;74.366;2023-06-10T01:25:29;38.60;;;18.58;;
31224;SDS011;17847;31.524;74.366;2023-06-10T01:28:25;33.13;;;16.17;;
31224;SDS011;17847;31.524;74.366;2023-06-10T01:31:20;41.22;;;15.95;;
31224;SDS011;17847;31.524;74.366;2023-06-10T01:34:07;35.95;;;14.80;;
31224;SDS011;17847;31.524;74.366;2023-06-10T01:36:40;37.17;;;15.40;;
31224;SDS011;17847;31.524;74.366;2023-06-10T01:39:14;37.42;;;18.17;;
31224;SDS011;17847;31.524;74.366;2023-06-10T01:41:45;39.45;;;19.55;;
31224;SDS011;17847;31.524;74.366;2023-06-10T01:44:19;54.70;;;28.15;;
31224;SDS011;17847;31.524;74.366;2023-06-10T01:46:51;64.22;;;32.20;;
31224;SDS011;17847;31.524;74.366;2023-06-10T01:49:20;78.70;;;39.85;;
31224;SDS011;17847;31.524;74.366;2023-06-10T01:51:52;80.63;;;50.60;;
31224;SDS011;17847;31.524;74.366;2023-06-10T01:54:21;107.57;;;56.60;;
31224;SDS011;17847;31.524;74.366;2023-06-10T01:56:51;111.13;;;58.25;;
31224;SDS011;17847;31.524;74.366;2023-06-10T01:59:20;109.30;;;57.97;;
31224;SDS011;17847;31.524;74.366;2023-06-10T02:01:50;93.63;;;58.17;;
31224;SDS011;17847;31.524;74.366;2023-06-10T02:04:19;115.00;;;59.42;;
31224;SDS011;17847;31.524;74.366;2023-06-10T02:06:49;94.22;;;56.45;;
31224;SDS011;17847;31.524;74.366;2023-06-10T02:09:18;109.38;;;60.15;;
31224;SDS011;17847;31.524;74.366;2023-06-10T02:11:49;109.43;;;60.75;;
31224;SDS011;17847;31.524;74.366;2023-06-10T02:14:18;101.55;;;60.03;;
31224;SDS011;17847;31.524;74.366;2023-06-10T02:16:47;101.43;;;55.70;;
31224;SDS011;17847;31.524;74.366;2023-06-10T02:19:16;100.88;;;54.92;;
31224;SDS011;17847;31.524;74.366;2023-06-10T02:21:50;85.65;;;54.08;;
31224;SDS011;17847;31.524;74.366;2023-06-10T02:24:19;93.47;;;54.47;;
31224;SDS011;17847;31.524;74.366;2023-06-10T02:26:49;88.97;;;55.58;;
31224;SDS011;17847;31.524;74.366;2023-06-10T02:29:21;101.93;;;55.13;;
31224;SDS011;17847;31.524;74.366;2023-06-10T02:31:52;86.32;;;51.50;;
31224;SDS011;17847;31.524;74.366;2023-06-10T02:34:21;90.53;;;51.75;;
31224;SDS011;17847;31.524;74.366;2023-06-10T02:36:51;92.05;;;52.47;;
31224;SDS011;17847;31.524;74.366;2023-06-10T02:39:21;85.88;;;52.03;;
31224;SDS011;17847;31.524;74.366;2023-06-10T02:41:51;91.80;;;50.13;;
31224;SDS011;17847;31.524;74.366;2023-06-10T02:44:21;90.68;;;52.88;;
31224;SDS011;17847;31.524;74.366;2023-06-10T02:46:50;88.13;;;50.13;;
31224;SDS011;17847;31.524;74.366;2023-06-10T02:49:21;83.50;;;50.55;;
31224;SDS011;17847;31.524;74.366;2023-06-10T02:51:50;87.13;;;49.60;;
31224;SDS011;17847;31.524;74.366;2023-06-10T02:57:00;92.50;;;46.92;;
31224;SDS011;17847;31.524;74.366;2023-06-10T02:59:31;81.15;;;45.55;;
31224;SDS011;17847;31.524;74.366;2023-06-10T03:02:01;77.03;;;42.78;;
31224;SDS011;17847;31.524;74.366;2023-06-10T03:04:37;86.88;;;45.75;;
31224;SDS011;17847;31.524;74.366;2023-06-10T03:07:12;74.50;;;45.10;;
31224;SDS011;17847;31.524;74.366;2023-06-10T03:09:42;71.78;;;41.75;;
31224;SDS011;17847;31.524;74.366;2023-06-10T03:12:14;67.67;;;41.37;;
31224;SDS011;17847;31.524;74.366;2023-06-10T03:14:46;75.45;;;41.72;;
31224;SDS011;17847;31.524;74.366;2023-06-10T03:17:17;73.53;;;40.95;;
31224;SDS011;17847;31.524;74.366;2023-06-10T03:19:46;68.95;;;39.05;;
31224;SDS011;17847;31.524;74.366;2023-06-10T03:22:16;58.50;;;31.08;;
31224;SDS011;17847;31.524;74.366;2023-06-10T03:25:08;62.95;;;31.42;;
31224;SDS011;17847;31.524;74.366;2023-06-10T03:27:47;60.38;;;31.42;;
31224;SDS011;17847;31.524;74.366;2023-06-10T03:30:18;60.38;;;32.35;;
31224;SDS011;17847;31.524;74.366;2023-06-10T03:32:47;60.00;;;29.23;;
31224;SDS011;17847;31.524;74.366;2023-06-10T03:37:50;54.72;;;28.75;;
31224;SDS011;17847;31.524;74.366;2023-06-10T03:40:19;57.83;;;27.73;;
31224;SDS011;17847;31.524;74.366;2023-06-10T03:42:49;45.45;;;26.95;;
31224;SDS011;17847;31.524;74.366;2023-06-10T03:45:18;55.65;;;25.70;;
31224;SDS011;17847;31.524;74.366;2023-06-10T03:47:48;57.72;;;26.08;;
31224;SDS011;17847;31.524;74.366;2023-06-10T03:50:22;51.75;;;26.92;;
31224;SDS011;17847;31.524;74.366;2023-06-10T03:52:52;59.83;;;26.13;;
31224;SDS011;17847;31.524;74.366;2023-06-10T03:55:24;51.75;;;27.40;;
31224;SDS011;17847;31.524;74.366;2023-06-10T03:57:56;61.43;;;26.23;;
31224;SDS011;17847;31.524;74.366;2023-06-10T04:00:27;57.67;;;26.30;;
31224;SDS011;17847;31.524;74.366;2023-06-10T04:02:58;59.58;;;28.02;;
31224;SDS011;17847;31.524;74.366;2023-06-10T04:05:41;58.47;;;26.92;;
31224;SDS011;17847;31.524;74.366;2023-06-10T04:08:11;55.75;;;27.48;;
31224;SDS011;17847;31.524;74.366;2023-06-10T04:10:40;48.70;;;22.92;;
31224;SDS011;17847;31.524;74.366;2023-06-10T04:13:10;48.90;;;24.60;;
31224;SDS011;17847;31.524;74.366;2023-06-10T04:15:46;45.92;;;23.98;;
31224;SDS011;17847;31.524;74.366;2023-06-10T04:18:17;35.97;;;22.27;;
31224;SDS011;17847;31.524;74.366;2023-06-10T04:20:48;44.25;;;22.02;;
31224;SDS011;17847;31.524;74.366;2023-06-10T04:23:17;42.30;;;22.00;;
31224;SDS011;17847;31.524;74.366;2023-06-10T04:25:47;39.65;;;20.88;;
31224;SDS011;17847;31.524;74.366;2023-06-10T04:28:18;44.13;;;22.17;;
31224;SDS011;17847;31.524;74.366;2023-06-10T04:30:48;38.70;;;22.38;;
31224;SDS011;17847;31.524;74.366;2023-06-10T04:33:17;47.05;;;23.27;;
31224;SDS011;17847;31.524;74.366;2023-06-10T04:35:47;43.13;;;22.75;;
31224;SDS011;17847;31.524;74.366;2023-06-10T04:38:19;41.57;;;21.67;;
31224;SDS011;17847;31.524;74.366;2023-06-10T04:40:49;36.50;;;16.38;;
31224;SDS011;17847;31.524;74.366;2023-06-10T04:43:21;39.72;;;16.15;;
31224;SDS011;17847;31.524;74.366;2023-06-10T04:45:51;42.78;;;15.85;;
31224;SDS011;17847;31.524;74.366;2023-06-10T04:48:20;33.50;;;14.63;;
31224;SDS011;17847;31.524;74.366;2023-06-10T04:50:50;42.30;;;14.95;;
31224;SDS011;17847;31.524;74.366;2023-06-10T04:53:20;38.97;;;15.40;;
31224;SDS011;17847;31.524;74.366;2023-06-10T04:55:50;36.45;;;16.15;;
31224;SDS011;17847;31.524;74.366;2023-06-10T04:58:19;37.65;;;16.17;;
31224;SDS011;17847;31.524;74.366;2023-06-10T05:00:48;31.25;;;12.20;;
31224;SDS011;17847;31.524;74.366;2023-06-10T05:03:18;30.55;;;12.38;;
31224;SDS011;17847;31.524;74.366;2023-06-10T05:05:48;27.08;;;9.77;;
31224;SDS011;17847;31.524;74.366;2023-06-10T05:08:18;21.30;;;9.30;;
31224;SDS011;17847;31.524;74.366;2023-06-10T05:10:50;25.70;;;10.38;;
31224;SDS011;17847;31.524;74.366;2023-06-10T05:13:19;35.65;;;11.60;;
31224;SDS011;17847;31.524;74.366;2023-06-10T05:15:48;23.92;;;10.77;;
31224;SDS011;17847;31.524;74.366;2023-06-10T05:18:18;27.90;;;11.98;;
31224;SDS011;17847;31.524;74.366;2023-06-10T05:20:47;34.30;;;11.55;;
31224;SDS011;17847;31.524;74.366;2023-06-10T05:23:18;30.13;;;10.55;;
31224;SDS011;17847;31.524;74.366;2023-06-10T05:25:47;27.10;;;10.55;;
31224;SDS011;17847;31.524;74.366;2023-06-10T05:28:17;27.35;;;11.75;;
31224;SDS011;17847;31.524;74.366;2023-06-10T05:30:47;34.65;;;10.80;;
31224;SDS011;17847;31.524;74.366;2023-06-10T05:33:16;30.75;;;11.80;;
31224;SDS011;17847;31.524;74.366;2023-06-10T05:35:46;46.25;;;11.68;;
31224;SDS011;17847;31.524;74.366;2023-06-10T05:38:16;25.45;;;10.77;;
31224;SDS011;17847;31.524;74.366;2023-06-10T05:40:45;25.52;;;11.65;;
31224;SDS011;17847;31.524;74.366;2023-06-10T05:43:15;24.25;;;11.55;;
31224;SDS011;17847;31.524;74.366;2023-06-10T05:45:45;21.80;;;11.18;;
31224;SDS011;17847;31.524;74.366;2023-06-10T05:48:15;23.08;;;9.55;;
31224;SDS011;17847;31.524;74.366;2023-06-10T05:50:45;16.83;;;7.43;;
31224;SDS011;17847;31.524;74.366;2023-06-10T05:53:16;20.80;;;9.25;;
31224;SDS011;17847;31.524;74.366;2023-06-10T05:55:46;27.48;;;9.52;;
31224;SDS011;17847;31.524;74.366;2023-06-10T05:58:15;26.75;;;9.23;;
31224;SDS011;17847;31.524;74.366;2023-06-10T06:00:45;25.70;;;9.88;;
31224;SDS011;17847;31.524;74.366;2023-06-10T06:03:15;33.75;;;11.30;;
31224;SDS011;17847;31.524;74.366;2023-06-10T06:05:45;34.95;;;12.63;;
31224;SDS011;17847;31.524;74.366;2023-06-10T06:08:15;31.80;;;12.15;;
31224;SDS011;17847;31.524;74.366;2023-06-10T06:10:46;29.48;;;12.18;;
31224;SDS011;17847;31.524;74.366;2023-06-10T06:13:19;26.65;;;10.85;;
31224;SDS011;17847;31.524;74.366;2023-06-10T06:15:48;26.77;;;10.02;;
31224;SDS011;17847;31.524;74.366;2023-06-10T06:18:19;33.42;;;10.18;;
31224;SDS011;17847;31.524;74.366;2023-06-10T06:20:49;25.98;;;10.45;;
31224;SDS011;17847;31.524;74.366;2023-06-10T06:23:19;23.77;;;10.40;;
31224;SDS011;17847;31.524;74.366;2023-06-10T06:25:50;22.77;;;11.50;;
31224;SDS011;17847;31.524;74.366;2023-06-10T06:28:19;20.70;;;11.50;;
31224;SDS011;17847;31.524;74.366;2023-06-10T06:30:50;30.05;;;11.38;;
31224;SDS011;17847;31.524;74.366;2023-06-10T06:33:20;34.30;;;11.35;;
31224;SDS011;17847;31.524;74.366;2023-06-10T06:35:50;33.30;;;13.07;;
31224;SDS011;17847;31.524;74.366;2023-06-10T06:38:19;33.78;;;11.43;;
31224;SDS011;17847;31.524;74.366;2023-06-10T06:40:49;22.70;;;10.82;;
31224;SDS011;17847;31.524;74.366;2023-06-10T06:43:18;22.13;;;10.00;;
31224;SDS011;17847;31.524;74.366;2023-06-10T06:46:03;28.38;;;9.75;;
31224;SDS011;17847;31.524;74.366;2023-06-10T06:48:32;27.58;;;10.00;;
31224;SDS011;17847;31.524;74.366;2023-06-10T06:51:02;23.75;;;9.32;;
31224;SDS011;17847;31.524;74.366;2023-06-10T06:53:34;25.42;;;9.65;;
31224;SDS011;17847;31.524;74.366;2023-06-10T06:56:06;23.25;;;9.02;;
31224;SDS011;17847;31.524;74.366;2023-06-10T06:58:36;26.52;;;9.35;;
31224;SDS011;17847;31.524;74.366;2023-06-10T07:01:06;25.38;;;8.55;;
31224;SDS011;17847;31.524;74.366;2023-06-10T07:03:35;22.00;;;8.20;;
31224;SDS011;17847;31.524;74.366;2023-06-10T07:06:05;21.02;;;8.82;;
31224;SDS011;17847;31.524;74.366;2023-06-10T07:08:35;29.73;;;8.85;;
31224;SDS011;17847;31.524;74.366;2023-06-10T07:11:05;22.50;;;8.27;;
31224;SDS011;17847;31.524;74.366;2023-06-10T07:13:35;30.58;;;7.80;;
31224;SDS011;17847;31.524;74.366;2023-06-10T07:16:04;25.42;;;8.13;;
31224;SDS011;17847;31.524;74.366;2023-06-10T07:18:34;20.05;;;7.05;;
31224;SDS011;17847;31.524;74.366;2023-06-10T07:21:04;21.75;;;6.65;;
31224;SDS011;17847;31.524;74.366;2023-06-10T07:23:33;25.40;;;7.72;;
31224;SDS011;17847;31.524;74.366;2023-06-10T07:26:03;24.23;;;7.55;;
31224;SDS011;17847;31.524;74.366;2023-06-10T07:28:33;22.40;;;7.50;;
31224;SDS011;17847;31.524;74.366;2023-06-10T07:31:03;20.73;;;7.47;;
31224;SDS011;17847;31.524;74.366;2023-06-10T07:33:32;27.90;;;9.02;;
31224;SDS011;17847;31.524;74.366;2023-06-10T07:36:06;29.38;;;9.05;;
31224;SDS011;17847;31.524;74.366;2023-06-10T07:38:36;20.27;;;7.93;;
31224;SDS011;17847;31.524;74.366;2023-06-10T07:41:05;23.30;;;8.65;;
31224;SDS011;17847;31.524;74.366;2023-06-10T07:43:35;31.42;;;8.35;;
31224;SDS011;17847;31.524;74.366;2023-06-10T07:46:05;19.25;;;7.90;;
31224;SDS011;17847;31.524;74.366;2023-06-10T07:48:35;16.08;;;7.20;;
31224;SDS011;17847;31.524;74.366;2023-06-10T07:51:04;18.55;;;7.05;;
31224;SDS011;17847;31.524;74.366;2023-06-10T07:53:34;20.55;;;7.28;;
31224;SDS011;17847;31.524;74.366;2023-06-10T07:56:04;20.20;;;6.10;;
31224;SDS011;17847;31.524;74.366;2023-06-10T07:58:34;25.80;;;6.80;;
31224;SDS011;17847;31.524;74.366;2023-06-10T08:01:03;18.40;;;6.38;;
31224;SDS011;17847;31.524;74.366;2023-06-10T08:03:33;18.48;;;5.80;;
31224;SDS011;17847;31.524;74.366;2023-06-10T08:06:03;23.77;;;6.47;;
31224;SDS011;17847;31.524;74.366;2023-06-10T08:08:33;20.88;;;6.90;;
31224;SDS011;17847;31.524;74.366;2023-06-10T08:11:12;24.55;;;6.72;;
31224;SDS011;17847;31.524;74.366;2023-06-10T08:13:42;18.30;;;6.90;;
31224;SDS011;17847;31.524;74.366;2023-06-10T08:16:11;19.17;;;7.78;;
31224;SDS011;17847;31.524;74.366;2023-06-10T08:18:41;17.42;;;6.25;;
31224;SDS011;17847;31.524;74.366;2023-06-10T08:21:10;17.25;;;7.05;;
31224;SDS011;17847;31.524;74.366;2023-06-10T08:23:40;20.77;;;6.70;;
31224;SDS011;17847;31.524;74.366;2023-06-10T08:26:10;20.40;;;6.78;;
31224;SDS011;17847;31.524;74.366;2023-06-10T08:28:39;15.65;;;6.85;;
31224;SDS011;17847;31.524;74.366;2023-06-10T08:31:09;24.00;;;6.85;;
31224;SDS011;17847;31.524;74.366;2023-06-10T08:33:38;19.42;;;7.15;;
31224;SDS011;17847;31.524;74.366;2023-06-10T08:36:08;21.77;;;6.78;;
31224;SDS011;17847;31.524;74.366;2023-06-10T08:38:38;20.63;;;6.15;;
31224;SDS011;17847;31.524;74.366;2023-06-10T08:41:08;21.88;;;7.47;;
31224;SDS011;17847;31.524;74.366;2023-06-10T08:43:44;21.83;;;7.20;;
31224;SDS011;17847;31.524;74.366;2023-06-10T08:46:28;17.05;;;7.15;;
31224;SDS011;17847;31.524;74.366;2023-06-10T08:49:02;19.70;;;7.80;;
31224;SDS011;17847;31.524;74.366;2023-06-10T08:51:36;20.65;;;7.50;;
31224;SDS011;17847;31.524;74.366;2023-06-10T08:54:11;22.48;;;7.22;;
31224;SDS011;17847;31.524;74.366;2023-06-10T08:56:49;17.08;;;6.80;;
31224;SDS011;17847;31.524;74.366;2023-06-10T08:59:23;20.02;;;7.65;;
31224;SDS011;17847;31.524;74.366;2023-06-10T09:01:54;16.25;;;6.90;;
31224;SDS011;17847;31.524;74.366;2023-06-10T09:04:24;20.92;;;7.05;;
31224;SDS011;17847;31.524;74.366;2023-06-10T09:06:54;23.08;;;7.22;;
31224;SDS011;17847;31.524;74.366;2023-06-10T09:09:25;19.40;;;6.95;;
31224;SDS011;17847;31.524;74.366;2023-06-10T09:11:59;20.50;;;7.25;;
31224;SDS011;17847;31.524;74.366;2023-06-10T09:14:28;16.63;;;6.85;;
31224;SDS011;17847;31.524;74.366;2023-06-10T09:16:58;18.88;;;6.35;;
31224;SDS011;17847;31.524;74.366;2023-06-10T09:19:28;17.63;;;6.60;;
31224;SDS011;17847;31.524;74.366;2023-06-10T09:21:58;21.42;;;5.97;;
31224;SDS011;17847;31.524;74.366;2023-06-10T09:24:29;20.63;;;6.50;;
31224;SDS011;17847;31.524;74.366;2023-06-10T09:27:02;27.60;;;7.57;;
31224;SDS011;17847;31.524;74.366;2023-06-10T09:32:23;14.80;;;6.65;;
31224;SDS011;17847;31.524;74.366;2023-06-10T09:34:55;21.55;;;6.20;;
31224;SDS011;17847;31.524;74.366;2023-06-10T09:37:25;20.27;;;6.27;;
31224;SDS011;17847;31.524;74.366;2023-06-10T09:40:07;16.90;;;6.38;;
31224;SDS011;17847;31.524;74.366;2023-06-10T09:42:39;17.23;;;6.53;;
31224;SDS011;17847;31.524;74.366;2023-06-10T09:45:08;20.42;;;7.10;;
31224;SDS011;17847;31.524;74.366;2023-06-10T09:47:38;25.67;;;6.35;;
31224;SDS011;17847;31.524;74.366;2023-06-10T09:50:07;13.18;;;6.20;;
31224;SDS011;17847;31.524;74.366;2023-06-10T09:52:37;23.13;;;7.30;;
31224;SDS011;17847;31.524;74.366;2023-06-10T09:55:08;26.42;;;7.32;;
31224;SDS011;17847;31.524;74.366;2023-06-10T09:57:39;14.37;;;6.27;;
31224;SDS011;17847;31.524;74.366;2023-06-10T10:00:10;16.90;;;6.50;;
31224;SDS011;17847;31.524;74.366;2023-06-10T10:02:53;14.02;;;5.80;;
31224;SDS011;17847;31.524;74.366;2023-06-10T10:05:23;21.65;;;6.95;;
31224;SDS011;17847;31.524;74.366;2023-06-10T10:07:52;20.02;;;6.30;;
31224;SDS011;17847;31.524;74.366;2023-06-10T10:10:25;20.50;;;7.90;;
31224;SDS011;17847;31.524;74.366;2023-06-10T10:12:55;12.20;;;6.10;;
31224;SDS011;17847;31.524;74.366;2023-06-10T10:15:30;30.80;;;7.82;;
31224;SDS011;17847;31.524;74.366;2023-06-10T10:18:09;16.67;;;6.27;;
31224;SDS011;17847;31.524;74.366;2023-06-10T10:20:45;20.98;;;6.18;;
31224;SDS011;17847;31.524;74.366;2023-06-10T10:23:20;14.65;;;6.63;;
31224;SDS011;17847;31.524;74.366;2023-06-10T10:26:07;13.15;;;5.78;;
31224;SDS011;17847;31.524;74.366;2023-06-10T10:31:50;19.88;;;6.53;;
31224;SDS011;17847;31.524;74.366;2023-06-10T10:37:11;14.27;;;6.07;;
31224;SDS011;17847;31.524;74.366;2023-06-10T10:39:40;17.95;;;6.57;;
31224;SDS011;17847;31.524;74.366;2023-06-10T10:42:11;15.82;;;5.85;;
31224;SDS011;17847;31.524;74.366;2023-06-10T10:44:42;23.73;;;6.43;;
31224;SDS011;17847;31.524;74.366;2023-06-10T10:47:12;16.15;;;5.90;;
31224;SDS011;17847;31.524;74.366;2023-06-10T10:49:44;18.90;;;5.97;;
31224;SDS011;17847;31.524;74.366;2023-06-10T10:52:17;23.30;;;6.45;;
31224;SDS011;17847;31.524;74.366;2023-06-10T10:54:47;18.90;;;5.65;;
31224;SDS011;17847;31.524;74.366;2023-06-10T10:57:18;22.13;;;6.65;;
31224;SDS011;17847;31.524;74.366;2023-06-10T11:02:32;14.35;;;6.32;;
31224;SDS011;17847;31.524;74.366;2023-06-10T11:05:04;18.58;;;6.57;;
31224;SDS011;17847;31.524;74.366;2023-06-10T11:07:38;16.67;;;6.15;;
31224;SDS011;17847;31.524;74.366;2023-06-10T11:12:42;15.32;;;6.25;;
31224;SDS011;17847;31.524;74.366;2023-06-10T11:15:22;18.40;;;5.95;;
31224;SDS011;17847;31.524;74.366;2023-06-10T11:23:25;17.52;;;6.28;;
31224;SDS011;17847;31.524;74.366;2023-06-10T11:31:29;15.90;;;6.32;;
31224;SDS011;17847;31.524;74.366;2023-06-10T11:34:02;22.92;;;6.38;;
31224;SDS011;17847;31.524;74.366;2023-06-10T11:36:40;15.45;;;6.20;;
31224;SDS011;17847;31.524;74.366;2023-06-10T11:39:14;17.73;;;6.22;;
31224;SDS011;17847;31.524;74.366;2023-06-10T11:41:44;21.80;;;6.55;;
31224;SDS011;17847;31.524;74.366;2023-06-10T11:44:14;18.30;;;5.95;;
31224;SDS011;17847;31.524;74.366;2023-06-10T11:46:49;16.35;;;5.60;;
31224;SDS011;17847;31.524;74.366;2023-06-10T11:49:20;16.70;;;6.07;;
31224;SDS011;17847;31.524;74.366;2023-06-10T11:51:50;20.27;;;5.95;;
31224;SDS011;17847;31.524;74.366;2023-06-10T11:54:21;14.07;;;5.25;;
31224;SDS011;17847;31.524;74.366;2023-06-10T11:56:50;12.90;;;5.72;;
31224;SDS011;17847;31.524;74.366;2023-06-10T11:59:27;15.50;;;5.88;;
31224;SDS011;17847;31.524;74.366;2023-06-10T12:01:57;17.95;;;6.15;;
31224;SDS011;17847;31.524;74.366;2023-06-10T12:04:27;26.10;;;7.72;;
31224;SDS011;17847;31.524;74.366;2023-06-10T12:06:57;15.48;;;5.90;;
31224;SDS011;17847;31.524;74.366;2023-06-10T12:09:28;17.35;;;5.15;;
31224;SDS011;17847;31.524;74.366;2023-06-10T12:20:06;15.88;;;6.03;;
31224;SDS011;17847;31.524;74.366;2023-06-10T12:22:41;16.02;;;6.57;;
31224;SDS011;17847;31.524;74.366;2023-06-10T12:25:12;18.80;;;5.90;;
31224;SDS011;17847;31.524;74.366;2023-06-10T12:27:52;17.75;;;6.03;;
31224;SDS011;17847;31.524;74.366;2023-06-10T12:30:24;12.57;;;5.97;;
31224;SDS011;17847;31.524;74.366;2023-06-10T12:32:55;11.13;;;5.75;;
31224;SDS011;17847;31.524;74.366;2023-06-10T12:35:26;12.05;;;6.03;;
31224;SDS011;17847;31.524;74.366;2023-06-10T12:37:58;16.33;;;5.70;;
31224;SDS011;17847;31.524;74.366;2023-06-10T12:40:30;18.20;;;6.40;;
31224;SDS011;17847;31.524;74.366;2023-06-10T12:43:04;19.30;;;6.40;;
31224;SDS011;17847;31.524;74.366;2023-06-10T12:45:38;14.50;;;6.07;;
31224;SDS011;17847;31.524;74.366;2023-06-10T12:48:17;15.23;;;6.20;;
31224;SDS011;17847;31.524;74.366;2023-06-10T12:50:54;16.20;;;6.05;;
31224;SDS011;17847;31.524;74.366;2023-06-10T12:53:25;219.00;;;17.95;;
31224;SDS011;17847;31.524;74.366;2023-06-10T12:55:55;176.20;;;17.33;;
31224;SDS011;17847;31.524;74.366;2023-06-10T12:58:26;132.18;;;13.52;;
31224;SDS011;17847;31.524;74.366;2023-06-10T13:00:55;128.98;;;11.70;;
31224;SDS011;17847;31.524;74.366;2023-06-10T13:03:25;106.22;;;10.55;;
31224;SDS011;17847;31.524;74.366;2023-06-10T13:05:55;128.23;;;11.75;;
31224;SDS011;17847;31.524;74.366;2023-06-10T13:08:25;108.07;;;9.38;;
31224;SDS011;17847;31.524;74.366;2023-06-10T13:10:54;85.38;;;9.52;;
31224;SDS011;17847;31.524;74.366;2023-06-10T13:13:24;77.45;;;7.97;;
31224;SDS011;17847;31.524;74.366;2023-06-10T13:15:54;64.03;;;6.18;;
31224;SDS011;17847;31.524;74.366;2023-06-10T13:18:28;53.60;;;5.88;;
31224;SDS011;17847;31.524;74.366;2023-06-10T13:20:58;39.97;;;4.63;;
31224;SDS011;17847;31.524;74.366;2023-06-10T13:23:28;49.10;;;7.03;;
31224;SDS011;17847;31.524;74.366;2023-06-10T13:25:57;34.47;;;5.15;;
31224;SDS011;17847;31.524;74.366;2023-06-10T13:28:27;21.42;;;4.85;;
31224;SDS011;17847;31.524;74.366;2023-06-10T13:30:58;19.23;;;3.95;;
31224;SDS011;17847;31.524;74.366;2023-06-10T13:33:28;13.05;;;4.25;;
31224;SDS011;17847;31.524;74.366;2023-06-10T13:35:58;15.63;;;5.15;;
31224;SDS011;17847;31.524;74.366;2023-06-10T13:38:27;13.00;;;5.60;;
31224;SDS011;17847;31.524;74.366;2023-06-10T13:40:56;19.40;;;4.82;;
31224;SDS011;17847;31.524;74.366;2023-06-10T13:43:29;12.70;;;4.50;;
31224;SDS011;17847;31.524;74.366;2023-06-10T13:45:59;18.75;;;4.57;;
31224;SDS011;17847;31.524;74.366;2023-06-10T13:48:29;7.70;;;3.70;;
31224;SDS011;17847;31.524;74.366;2023-06-10T13:50:59;8.32;;;3.75;;
31224;SDS011;17847;31.524;74.366;2023-06-10T13:53:29;8.82;;;3.67;;
31224;SDS011;17847;31.524;74.366;2023-06-10T13:55:58;16.98;;;3.53;;
31224;SDS011;17847;31.524;74.366;2023-06-10T13:58:31;11.68;;;4.00;;
31224;SDS011;17847;31.524;74.366;2023-06-10T14:01:00;10.55;;;3.58;;
31224;SDS011;17847;31.524;74.366;2023-06-10T14:03:30;15.18;;;3.53;;
31224;SDS011;17847;31.524;74.366;2023-06-10T14:05:59;10.90;;;3.50;;
31224;SDS011;17847;31.524;74.366;2023-06-10T14:08:29;12.90;;;3.90;;
31224;SDS011;17847;31.524;74.366;2023-06-10T14:10:58;7.53;;;3.60;;
31224;SDS011;17847;31.524;74.366;2023-06-10T14:13:28;8.20;;;4.00;;
31224;SDS011;17847;31.524;74.366;2023-06-10T14:15:58;13.93;;;3.28;;
31224;SDS011;17847;31.524;74.366;2023-06-10T14:18:31;11.82;;;4.03;;
31224;SDS011;17847;31.524;74.366;2023-06-10T14:21:00;9.45;;;3.95;;
31224;SDS011;17847;31.524;74.366;2023-06-10T14:23:30;8.23;;;3.88;;
31224;SDS011;17847;31.524;74.366;2023-06-10T14:26:00;6.25;;;3.63;;
31224;SDS011;17847;31.524;74.366;2023-06-10T14:28:31;13.73;;;3.70;;
31224;SDS011;17847;31.524;74.366;2023-06-10T14:31:01;10.43;;;4.72;;
31224;SDS011;17847;31.524;74.366;2023-06-10T14:33:30;15.75;;;4.88;;
31224;SDS011;17847;31.524;74.366;2023-06-10T14:36:00;4.90;;;3.50;;
31224;SDS011;17847;31.524;74.366;2023-06-10T14:38:30;13.15;;;4.75;;
31224;SDS011;17847;31.524;74.366;2023-06-10T14:40:59;13.38;;;3.97;;
31224;SDS011;17847;31.524;74.366;2023-06-10T14:43:29;8.75;;;4.85;;
31224;SDS011;17847;31.524;74.366;2023-06-10T14:45:59;14.07;;;5.55;;
31224;SDS011;17847;31.524;74.366;2023-06-10T14:48:28;7.63;;;4.47;;
31224;SDS011;17847;31.524;74.366;2023-06-10T14:50:57;8.45;;;4.78;;
31224;SDS011;17847;31.524;74.366;2023-06-10T14:53:28;11.45;;;5.03;;
31224;SDS011;17847;31.524;74.366;2023-06-10T14:55:57;7.55;;;5.03;;
31224;SDS011;17847;31.524;74.366;2023-06-10T14:58:31;8.27;;;4.80;;
31224;SDS011;17847;31.524;74.366;2023-06-10T15:01:00;9.02;;;4.50;;
31224;SDS011;17847;31.524;74.366;2023-06-10T15:03:31;6.93;;;4.03;;
31224;SDS011;17847;31.524;74.366;2023-06-10T15:06:01;6.85;;;4.22;;
31224;SDS011;17847;31.524;74.366;2023-06-10T15:08:31;3.63;;;3.13;;
31224;SDS011;17847;31.524;74.366;2023-06-10T15:11:01;4.80;;;3.03;;
31224;SDS011;17847;31.524;74.366;2023-06-10T15:13:31;12.73;;;3.28;;
31224;SDS011;17847;31.524;74.366;2023-06-10T15:16:00;6.63;;;3.45;;
31224;SDS011;17847;31.524;74.366;2023-06-10T15:18:30;4.68;;;3.45;;
31224;SDS011;17847;31.524;74.366;2023-06-10T15:20:59;8.55;;;4.28;;
31224;SDS011;17847;31.524;74.366;2023-06-10T15:23:30;7.57;;;3.05;;